Time;durP1;ratioP1;P1;durP2;ratioP2;P2;SDS_P1;SDS_P2;PMS_P1;PMS_P2;Temp;Humidity;BMP_temperature;BMP_pressure;BME280_temperature;BME280_humidity;BME280_pressure;Samples;Min_cycle;Max_cycle;Signal;HPM_P1;HPM_P2
2023/01/15 00:01:31;;;;;;;60.23;34.80;;;;;;;41.84;34.28;100977.16;5031446;28;20420;-82
2023/01/15 00:03:58;;;;;;;60.20;34.07;;;;;;;41.85;34.51;100976.03;5031217;28;20246;-82
2023/01/15 00:06:26;;;;;;;54.53;30.87;;;;;;;41.88;34.55;100971.84;5031256;28;20427;-82
2023/01/15 00:08:53;;;;;;;55.37;31.53;;;;;;;41.88;34.36;100969.13;5032244;28;20460;-83
2023/01/15 00:11:20;;;;;;;60.90;35.50;;;;;;;41.85;34.77;100967.84;5031246;28;20477;-82
2023/01/15 00:13:46;;;;;;;59.20;32.23;;;;;;;41.92;34.92;100968.13;5030748;28;20419;-83
2023/01/15 00:16:15;;;;;;;58.53;32.03;;;;;;;41.86;34.86;100964.00;5032373;28;20416;-82
2023/01/15 00:18:41;;;;;;;57.70;30.93;;;;;;;41.85;34.73;100956.94;5030016;28;20419;-82
2023/01/15 00:21:10;;;;;;;57.00;29.57;;;;;;;41.82;35.01;100966.59;5030700;28;20481;-82
2023/01/15 00:29:10;;;;;;;56.53;33.73;;;;;;;41.83;35.32;100961.94;5024592;28;20475;-83
2023/01/15 00:31:36;;;;;;;49.00;33.30;;;;;;;41.85;35.48;100959.66;5026044;28;20499;-84
2023/01/15 00:34:02;;;;;;;48.20;31.13;;;;;;;41.82;35.21;100955.69;5030289;28;20485;-83
2023/01/15 00:36:28;;;;;;;58.60;31.90;;;;;;;41.81;35.23;100948.66;5030101;28;20431;-83
2023/01/15 00:38:54;;;;;;;60.47;30.67;;;;;;;41.80;35.51;100947.03;5022139;28;20421;-82
2023/01/15 00:41:20;;;;;;;59.60;31.90;;;;;;;41.78;35.78;100943.06;5026063;28;20483;-82
2023/01/15 00:43:46;;;;;;;52.40;31.73;;;;;;;41.79;35.47;100934.56;5031362;28;20192;-83
2023/01/15 00:46:12;;;;;;;63.10;34.13;;;;;;;41.71;35.67;100935.38;5030025;28;20778;-82
2023/01/15 00:48:39;;;;;;;62.83;32.70;;;;;;;41.71;35.53;100927.22;5030080;28;20532;-83
2023/01/15 00:51:05;;;;;;;68.53;32.10;;;;;;;41.66;35.74;100923.88;5030327;28;20435;-83
2023/01/15 00:53:32;;;;;;;61.67;29.63;;;;;;;41.62;35.64;100921.03;5029884;28;20534;-83
2023/01/15 00:55:58;;;;;;;50.17;29.83;;;;;;;41.64;35.89;100921.50;5030264;28;20831;-83
2023/01/15 00:58:24;;;;;;;61.83;34.57;;;;;;;41.57;35.64;100926.69;5029721;28;20440;-83
2023/01/15 01:00:58;;;;;;;62.57;33.07;;;;;;;41.64;35.39;100917.97;5030044;28;20447;-82
2023/01/15 01:03:24;;;;;;;63.87;33.83;;;;;;;41.54;35.43;100913.72;5030710;28;20532;-82
2023/01/15 01:05:52;;;;;;;62.73;36.27;;;;;;;41.56;35.59;100916.91;5030012;28;20437;-83
2023/01/15 01:08:19;;;;;;;50.60;29.43;;;;;;;41.65;35.71;100928.53;5030474;28;20469;-82
2023/01/15 01:10:45;;;;;;;49.37;31.30;;;;;;;41.68;35.37;100924.34;5030001;28;20482;-83
2023/01/15 01:13:11;;;;;;;54.73;30.53;;;;;;;41.67;35.23;100920.03;5029489;28;20419;-82
2023/01/15 01:15:38;;;;;;;55.93;35.13;;;;;;;41.68;35.33;100924.34;5029664;28;20447;-84
2023/01/15 01:18:05;;;;;;;66.53;32.20;;;;;;;41.49;35.34;100908.44;5029739;28;20435;-82
2023/01/15 01:20:32;;;;;;;62.33;32.97;;;;;;;41.56;35.22;100914.19;5029535;28;20506;-82
2023/01/15 01:23:00;;;;;;;67.50;34.57;;;;;;;41.50;35.69;100913.59;5029630;28;20431;-82
2023/01/15 01:25:27;;;;;;;58.13;33.20;;;;;;;41.50;35.65;100910.88;5029940;28;20478;-83
2023/01/15 01:27:52;;;;;;;60.03;32.23;;;;;;;41.39;35.66;100908.84;5029537;28;20443;-83
2023/01/15 01:30:19;;;;;;;68.93;36.07;;;;;;;41.42;35.57;100905.44;5017303;28;20534;-82
2023/01/15 01:32:45;;;;;;;57.47;33.50;;;;;;;41.48;35.33;100904.13;5030377;28;20943;-82
2023/01/15 01:35:11;;;;;;;74.33;32.13;;;;;;;41.50;35.84;100899.19;5030150;28;20461;-82
2023/01/15 01:37:37;;;;;;;59.03;30.00;;;;;;;41.51;35.65;100896.13;5029933;28;20944;-84
2023/01/15 01:40:04;;;;;;;56.77;34.13;;;;;;;41.54;35.76;100895.44;5029372;28;20471;-82
2023/01/15 01:42:30;;;;;;;62.27;32.57;;;;;;;41.51;35.27;100887.94;5030435;28;20475;-82
2023/01/15 01:45:24;;;;;;;68.23;34.23;;;;;;;41.43;35.62;100883.34;5029431;28;20424;-82
2023/01/15 01:47:53;;;;;;;57.10;35.30;;;;;;;41.43;35.68;100886.06;5029876;28;20466;-83
2023/01/15 01:50:21;;;;;;;67.63;33.13;;;;;;;41.51;35.90;100887.16;5031202;28;20455;-82
2023/01/15 01:53:01;;;;;;;59.20;31.90;;;;;;;41.53;35.77;100887.59;5012890;28;20431;-84
2023/01/15 01:55:29;;;;;;;65.40;32.63;;;;;;;41.50;35.84;100880.91;5013730;28;20427;-82
2023/01/15 01:57:58;;;;;;;56.47;33.20;;;;;;;41.52;35.55;100881.38;5030369;28;20489;-83
2023/01/15 02:00:25;;;;;;;69.77;34.97;;;;;;;41.50;35.85;100880.13;5013195;28;20951;-83
2023/01/15 02:02:53;;;;;;;60.60;34.43;;;;;;;41.51;35.76;100885.22;4998078;28;20435;-83
2023/01/15 02:05:32;;;;;;;59.03;31.77;;;;;;;41.54;35.59;100889.19;5016811;28;20443;-80
2023/01/15 02:07:59;;;;;;;57.90;34.10;;;;;;;41.52;35.63;100880.56;5005898;28;20451;-83
2023/01/15 02:10:26;;;;;;;57.67;32.00;;;;;;;41.52;35.67;100880.56;5016791;28;20463;-82
2023/01/15 02:13:23;;;;;;;56.37;30.20;;;;;;;41.55;35.67;100880.69;5034580;28;20526;-82
2023/01/15 02:16:15;;;;;;;66.33;34.07;;;;;;;41.51;35.61;100873.53;5008364;28;20973;-82
2023/01/15 02:19:03;;;;;;;67.00;33.23;;;;;;;41.55;36.06;100874.44;5024298;28;20439;-82
2023/01/15 02:22:05;;;;;;;68.40;33.80;;;;;;;41.45;36.30;100866.69;5008479;28;20467;-83
2023/01/15 02:24:58;;;;;;;55.27;32.17;;;;;;;41.40;36.32;100867.69;5015871;28;20423;-82
2023/01/15 02:27:25;;;;;;;52.97;33.43;;;;;;;41.48;36.00;100868.75;5022642;28;20435;-84
2023/01/15 02:30:15;;;;;;;64.13;35.87;;;;;;;41.46;35.79;100874.53;5032126;28;20467;-83
2023/01/15 02:33:00;;;;;;;50.00;30.80;;;;;;;41.44;35.75;100868.63;5015887;28;21047;-83
2023/01/15 02:35:59;;;;;;;46.20;33.87;;;;;;;41.44;36.21;100868.63;5013182;28;20431;-83
2023/01/15 02:38:29;;;;;;;54.20;30.23;;;;;;;41.40;35.83;100864.16;5016160;28;20420;-84
2023/01/15 02:40:59;;;;;;;64.63;34.13;;;;;;;41.36;35.62;100868.66;5015798;28;20471;-82
2023/01/15 02:43:28;;;;;;;63.10;36.23;;;;;;;41.40;35.65;100872.31;5032477;28;21002;-83
2023/01/15 02:45:58;;;;;;;56.07;31.67;;;;;;;41.43;35.63;100867.00;5032954;28;20458;-83
2023/01/15 02:48:28;;;;;;;60.90;34.53;;;;;;;41.47;35.69;100870.66;5028454;28;20951;-84
2023/01/15 02:51:00;;;;;;;51.90;31.07;;;;;;;41.46;35.26;100871.00;5033685;28;20435;-82
2023/01/15 02:53:29;;;;;;;67.00;31.83;;;;;;;41.32;35.85;100877.50;5032247;28;20428;-83
2023/01/15 02:56:02;;;;;;;55.00;31.53;;;;;;;41.26;35.77;100872.56;5034091;28;20431;-82
2023/01/15 02:58:36;;;;;;;60.60;32.10;;;;;;;41.25;35.44;100866.31;5016018;28;20453;-83
2023/01/15 03:01:08;;;;;;;57.53;30.50;;;;;;;41.34;35.48;100875.22;5032754;28;20426;-87
2023/01/15 03:04:03;;;;;;;62.30;31.37;;;;;;;41.30;35.68;100876.19;5032762;28;20486;-83
2023/01/15 03:06:41;;;;;;;59.27;29.77;;;;;;;41.34;35.55;100879.88;5016968;28;20431;-83
2023/01/15 03:09:08;;;;;;;51.80;32.30;;;;;;;41.34;35.83;100882.59;5032673;28;20455;-83
2023/01/15 03:11:41;;;;;;;56.53;28.63;;;;;;;41.38;35.55;100880.03;5031916;28;20518;-82
2023/01/15 03:14:20;;;;;;;54.17;30.23;;;;;;;41.29;35.89;100883.56;5032505;28;20816;-82
2023/01/15 03:16:55;;;;;;;44.60;29.03;;;;;;;41.36;35.82;100882.28;5031805;28;20419;-83
2023/01/15 03:19:30;;;;;;;75.63;33.23;;;;;;;41.28;35.98;100879.25;5032162;28;20939;-84
2023/01/15 03:22:19;;;;;;;51.60;31.37;;;;;;;41.32;35.79;100884.84;5031885;28;20431;-83
2023/01/15 03:24:56;;;;;;;52.87;30.67;;;;;;;41.34;35.91;100879.88;5023634;28;20459;-83
2023/01/15 03:27:22;;;;;;;72.00;29.97;;;;;;;41.38;35.95;100886.28;5032521;28;20415;-83
2023/01/15 03:29:54;;;;;;;70.47;33.10;;;;;;;41.29;36.19;100883.56;5031625;28;20463;-83
2023/01/15 03:32:30;;;;;;;48.57;29.63;;;;;;;41.34;35.57;100885.31;5032272;28;20985;-88
2023/01/15 03:34:56;;;;;;;65.80;35.00;;;;;;;41.34;35.52;100877.97;5031578;28;20481;-83
2023/01/15 03:37:26;;;;;;;49.40;29.63;;;;;;;41.21;35.60;100881.69;5033124;28;20466;-83
2023/01/15 03:39:54;;;;;;;76.13;36.30;;;;;;;41.25;35.16;100887.25;5015117;28;20554;-84
2023/01/15 03:42:38;;;;;;;59.27;31.13;;;;;;;41.26;35.18;100881.50;5015122;28;20467;-84
2023/01/15 03:45:22;;;;;;;63.50;33.10;;;;;;;41.30;35.16;100887.88;5031435;28;20427;-84
2023/01/15 03:48:10;;;;;;;67.07;33.33;;;;;;;41.33;35.15;100883.75;5033005;28;20430;-84
2023/01/15 03:50:47;;;;;;;79.63;42.10;;;;;;;41.23;35.27;100884.06;5019283;28;20432;-81
2023/01/15 03:53:48;;;;;;;79.93;42.80;;;;;;;41.06;35.76;100884.94;5031251;28;20435;-81
2023/01/15 03:57:00;;;;;;;68.07;46.50;;;;;;;40.91;35.84;100889.03;5032134;28;20418;-80
2023/01/15 03:59:38;;;;;;;75.30;49.87;;;;;;;40.85;35.44;100889.50;5022945;28;20450;-77
2023/01/15 04:02:08;;;;;;;74.57;51.47;;;;;;;40.81;35.62;100884.72;5031406;28;20434;-78
2023/01/15 04:04:35;;;;;;;77.83;49.10;;;;;;;40.81;35.79;100881.19;5031091;28;20428;-78
2023/01/15 04:07:02;;;;;;;82.47;50.67;;;;;;;40.77;35.69;100878.34;5031313;28;20423;-78
2023/01/15 04:09:30;;;;;;;76.13;48.03;;;;;;;40.71;35.57;100882.38;5030972;28;20538;-81
2023/01/15 04:11:59;;;;;;;66.40;42.67;;;;;;;40.62;35.63;100878.06;5031291;28;20423;-81
2023/01/15 04:14:29;;;;;;;81.03;49.83;;;;;;;40.53;35.67;100878.09;5014516;28;20841;-81
2023/01/15 04:16:55;;;;;;;84.80;46.70;;;;;;;40.55;35.88;100871.19;5030934;28;20416;-81
2023/01/15 04:19:21;;;;;;;74.77;44.70;;;;;;;40.57;35.54;100873.59;5032659;28;20503;-81
2023/01/15 04:21:46;;;;;;;87.03;47.60;;;;;;;40.52;35.69;100876.50;5030583;28;20415;-77
2023/01/15 04:24:14;;;;;;;76.60;45.37;;;;;;;40.49;35.90;100872.50;5025387;28;20434;-77
2023/01/15 04:26:40;;;;;;;77.57;44.90;;;;;;;40.50;35.69;100878.72;5027999;28;20184;-78
2023/01/15 04:29:06;;;;;;;78.37;47.83;;;;;;;40.44;35.69;100885.44;5030880;28;20463;-78
2023/01/15 04:31:34;;;;;;;77.37;44.17;;;;;;;40.43;36.09;100881.91;5031573;28;20438;-78
2023/01/15 04:34:01;;;;;;;69.47;44.43;;;;;;;40.41;35.95;100892.31;5030893;28;20416;-81
2023/01/15 04:36:28;;;;;;;69.03;43.97;;;;;;;40.38;35.44;100879.38;5030735;28;20420;-79
2023/01/15 04:38:56;;;;;;;67.87;43.33;;;;;;;40.40;36.11;100893.44;5030795;28;20422;-78
2023/01/15 04:44:07;;;;;;;69.27;43.40;;;;;;;40.38;36.00;100887.53;5031745;28;20419;-78
2023/01/15 04:46:37;;;;;;;78.43;44.93;;;;;;;40.39;36.03;100891.03;5032011;28;20439;-78
2023/01/15 04:49:05;;;;;;;64.70;45.57;;;;;;;40.39;35.80;100893.75;5013882;28;20458;-78
2023/01/15 04:51:31;;;;;;;74.10;44.60;;;;;;;40.39;35.62;100894.56;5014069;28;20434;-78
2023/01/15 04:53:58;;;;;;;69.60;43.47;;;;;;;40.33;35.59;100889.59;5014253;28;20428;-78
2023/01/15 04:56:24;;;;;;;84.27;47.37;;;;;;;40.27;35.82;100897.94;5013105;28;21018;-78
2023/01/15 04:58:50;;;;;;;78.57;44.03;;;;;;;40.32;35.58;100896.97;5010999;28;20452;-78
2023/01/15 05:01:18;;;;;;;63.00;42.70;;;;;;;40.34;35.86;100908.31;5000154;28;20188;-78
2023/01/15 05:03:44;;;;;;;66.80;46.77;;;;;;;40.37;35.68;100915.03;5014055;28;20441;-78
2023/01/15 05:06:10;;;;;;;63.67;43.97;;;;;;;40.33;35.93;100911.34;5013832;28;20459;-80
2023/01/15 05:08:36;;;;;;;71.13;43.87;;;;;;;40.31;35.42;100903.53;5013593;28;20550;-80
2023/01/15 05:11:04;;;;;;;65.20;42.57;;;;;;;40.26;36.34;100914.56;5031895;28;20439;-78
2023/01/15 05:13:32;;;;;;;83.13;45.43;;;;;;;40.18;35.98;100916.16;5013832;28;20458;-79
2023/01/15 05:16:19;;;;;;;73.10;42.10;;;;;;;40.17;36.08;100921.94;5013849;28;20447;-78
2023/01/15 05:18:46;;;;;;;75.97;44.97;;;;;;;40.19;35.85;100919.69;5013658;28;20438;-79
2023/01/15 05:21:17;;;;;;;62.90;43.40;;;;;;;40.18;36.08;100918.88;5014237;28;20940;-78
2023/01/15 05:23:43;;;;;;;80.77;44.27;;;;;;;40.26;36.17;100923.50;5013778;28;20423;-79
2023/01/15 05:26:09;;;;;;;62.30;44.07;;;;;;;40.29;35.83;100927.50;5031909;28;20415;-78
2023/01/15 05:28:35;;;;;;;58.53;41.03;;;;;;;40.25;36.02;100921.91;5031324;28;20505;-78
2023/01/15 05:31:11;;;;;;;52.30;38.73;;;;;;;40.24;35.77;100931.19;5013833;28;20439;-78
2023/01/15 05:33:38;;;;;;;58.30;39.43;;;;;;;40.28;35.63;100940.31;5000207;28;20420;-78
2023/01/15 05:36:10;;;;;;;80.83;40.37;;;;;;;40.21;36.14;100936.47;4996989;28;20442;-77
2023/01/15 05:38:37;;;;;;;63.37;38.90;;;;;;;40.20;35.73;100934.84;4981607;28;20423;-78
2023/01/15 05:41:47;;;;;;;72.00;40.83;;;;;;;40.16;35.86;100936.63;5025636;28;20474;-77
2023/01/15 05:43:50;;;;;;;66.10;40.57;;;;;;;40.25;35.62;100942.84;5034997;28;20437;-78
2023/01/15 05:46:17;;;;;;;71.20;42.77;;;;;;;40.26;35.50;100937.09;5027640;28;20511;-79
2023/01/15 05:48:43;;;;;;;71.47;41.07;;;;;;;40.22;35.92;100938.88;4998062;28;20456;-78
2023/01/15 05:51:08;;;;;;;78.73;47.30;;;;;;;40.23;35.62;100945.91;5027418;28;20439;-77
2023/01/15 05:53:34;;;;;;;93.27;44.60;;;;;;;40.23;36.03;100942.38;5040772;28;20612;-78
2023/01/15 05:56:01;;;;;;;73.27;43.60;;;;;;;40.22;35.67;100947.03;5017151;28;20415;-81
2023/01/15 05:58:27;;;;;;;93.43;48.23;;;;;;;40.26;35.87;100952.59;5017154;28;20184;-81
2023/01/15 06:00:53;;;;;;;86.90;46.70;;;;;;;40.34;35.93;100957.25;5012930;28;20482;-78
2023/01/15 06:03:24;;;;;;;83.03;42.53;;;;;;;40.33;35.43;100965.72;5030603;28;20626;-78
2023/01/15 06:05:54;;;;;;;72.20;46.67;;;;;;;40.35;35.85;100971.66;5016763;28;20427;-78
2023/01/15 06:08:21;;;;;;;70.87;43.40;;;;;;;40.33;35.68;100976.56;5016802;28;20529;-78
2023/01/15 06:10:48;;;;;;;78.80;46.30;;;;;;;40.31;35.69;100979.63;5016739;28;20427;-81
2023/01/15 06:13:15;;;;;;;76.20;42.40;;;;;;;40.35;35.61;100980.59;5017048;28;20503;-81
2023/01/15 06:15:43;;;;;;;64.50;43.97;;;;;;;40.38;35.63;100996.25;5014976;28;20550;-82
2023/01/15 06:18:09;;;;;;;76.47;43.97;;;;;;;40.40;35.36;100994.03;5000583;28;20435;-83
2023/01/15 06:20:36;;;;;;;91.53;48.00;;;;;;;40.43;35.44;101000.72;5016300;28;20428;-82
2023/01/15 06:23:02;;;;;;;96.10;57.07;;;;;;;40.42;35.60;101005.38;5012455;28;20436;-82
2023/01/15 06:25:28;;;;;;;106.93;57.87;;;;;;;40.43;35.65;101015.13;4996583;28;20559;-81
2023/01/15 06:27:54;;;;;;;88.83;55.53;;;;;;;40.42;35.53;101018.16;5016709;28;20459;-82
2023/01/15 06:30:19;;;;;;;120.77;55.63;;;;;;;40.40;35.56;101020.41;5016520;28;20487;-80
2023/01/15 06:32:45;;;;;;;112.67;58.60;;;;;;;40.37;35.58;101012.88;5016297;28;20267;-82
2023/01/15 06:35:13;;;;;;;99.33;59.60;;;;;;;40.34;35.52;101018.97;5014659;28;21014;-82
2023/01/15 06:37:39;;;;;;;79.20;54.57;;;;;;;40.29;35.70;101012.56;5006076;28;20503;-81
2023/01/15 06:40:05;;;;;;;94.10;60.87;;;;;;;40.29;35.55;101020.72;5012327;28;20471;-80
2023/01/15 06:48:00;;;;;;;95.20;51.17;;;;;;;40.36;35.64;101025.69;5021838;28;20432;-82
2023/01/15 06:50:26;;;;;;;86.30;53.07;;;;;;;40.33;35.52;101020.91;5015592;28;20492;-83
2023/01/15 06:52:52;;;;;;;79.87;50.07;;;;;;;40.35;35.59;101031.44;5016571;28;20460;-80
2023/01/15 06:55:18;;;;;;;105.13;53.70;;;;;;;40.39;35.83;101027.78;5010786;28;20431;-80
2023/01/15 06:57:44;;;;;;;85.93;53.40;;;;;;;40.34;35.38;101036.09;5030867;28;20459;-76
2023/01/15 07:00:11;;;;;;;85.10;49.40;;;;;;;40.35;35.84;101039.59;5030633;28;20424;-77
2023/01/15 07:02:40;;;;;;;81.60;50.07;;;;;;;40.32;35.48;101042.94;5014387;28;20419;-77
2023/01/15 07:05:06;;;;;;;70.27;49.77;;;;;;;40.32;35.23;101045.66;5015747;28;20447;-75
2023/01/15 07:07:33;;;;;;;86.13;55.40;;;;;;;40.23;35.43;101049.19;5015691;28;20423;-79
2023/01/15 07:09:59;;;;;;;108.77;57.70;;;;;;;40.23;35.80;101056.53;5015705;28;20463;-77
2023/01/15 07:12:26;;;;;;;89.10;53.53;;;;;;;40.23;35.46;101060.03;4999192;28;20443;-78
2023/01/15 07:14:52;;;;;;;90.47;56.37;;;;;;;40.31;35.48;101057.66;5015405;28;20443;-77
2023/01/15 07:17:18;;;;;;;90.27;57.93;;;;;;;40.34;35.51;101067.91;4996958;28;20877;-77
2023/01/15 07:19:45;;;;;;;88.57;59.47;;;;;;;40.35;35.07;101072.22;4997482;28;20228;-77
2023/01/15 07:22:11;;;;;;;84.40;56.23;;;;;;;40.38;35.42;101075.09;4996928;28;20429;-77
2023/01/15 07:24:37;;;;;;;93.90;61.07;;;;;;;40.40;35.25;101080.22;4998289;28;20421;-77
2023/01/15 07:27:03;;;;;;;82.60;57.03;;;;;;;40.40;35.16;101082.94;4996436;28;20875;-76
2023/01/15 07:29:29;;;;;;;90.43;59.17;;;;;;;40.36;35.39;101088.19;5012293;28;20448;-82
2023/01/15 07:31:55;;;;;;;92.33;61.20;;;;;;;40.44;35.24;101092.84;4994638;28;20490;-78
2023/01/15 07:34:21;;;;;;;93.83;61.20;;;;;;;40.41;35.36;101090.78;4977453;28;21024;-87
2023/01/15 07:36:47;;;;;;;85.40;62.33;;;;;;;40.43;35.16;101104.03;5025448;28;20467;-83
2023/01/15 07:39:14;;;;;;;96.07;64.40;;;;;;;40.48;35.09;101104.72;5012041;28;20470;-83
2023/01/15 07:50:03;;;;;;;130.27;76.60;;;;;;;40.64;34.84;101117.84;5013226;28;20487;-84
2023/01/15 07:52:29;;;;;;;90.77;68.73;;;;;;;40.64;35.12;101123.28;5009759;28;20490;-84
2023/01/15 07:54:55;;;;;;;102.00;73.73;;;;;;;40.65;35.30;101116.75;4992839;28;20424;-85
2023/01/15 07:57:22;;;;;;;113.97;70.77;;;;;;;40.65;34.83;101122.97;4991247;28;20567;-84
2023/01/15 07:59:49;;;;;;;109.20;63.93;;;;;;;40.61;35.17;101130.16;4990158;28;20189;-84
2023/01/15 08:02:16;;;;;;;95.60;61.63;;;;;;;40.62;35.24;101123.59;5008460;28;21043;-84
2023/01/15 08:04:41;;;;;;;90.10;62.83;;;;;;;40.64;35.06;101126.81;4999276;28;20479;-84
2023/01/15 08:07:08;;;;;;;140.77;65.03;;;;;;;40.75;35.10;101133.53;5008297;28;20992;-87
2023/01/15 08:09:34;;;;;;;88.77;53.00;;;;;;;40.69;35.30;101132.06;4991743;28;20448;-83
2023/01/15 08:17:35;;;;;;;104.53;51.93;;;;;;;40.74;35.27;101123.75;5010415;28;20443;-81
2023/01/15 08:20:04;;;;;;;80.87;51.80;;;;;;;40.78;35.54;101123.94;4991987;28;20498;-81
2023/01/15 08:22:30;;;;;;;83.33;52.30;;;;;;;40.77;35.33;101125.06;4991580;28;20452;-82
2023/01/15 08:24:57;;;;;;;77.23;53.97;;;;;;;40.78;35.61;101126.66;4991717;28;20821;-82
2023/01/15 08:27:23;;;;;;;83.67;49.80;;;;;;;40.80;35.30;101113.53;4993531;28;20428;-83
2023/01/15 08:29:49;;;;;;;91.73;53.70;;;;;;;40.85;35.29;101113.38;4994402;28;20991;-83
2023/01/15 08:32:16;;;;;;;81.63;52.67;;;;;;;40.94;35.44;101118.81;5011059;28;20430;-81
2023/01/15 08:34:42;;;;;;;92.00;57.53;;;;;;;40.97;35.34;101108.13;4979698;28;20461;-85
2023/01/15 08:37:08;;;;;;;77.53;52.10;;;;;;;40.96;35.23;101116.59;4975924;28;20418;-85
2023/01/15 08:39:34;;;;;;;97.80;55.03;;;;;;;40.98;35.07;101117.06;4990464;28;20437;-86
2023/01/15 08:42:00;;;;;;;75.67;51.57;;;;;;;40.99;35.21;101113.22;5013534;28;20865;-86
2023/01/15 08:44:26;;;;;;;82.13;46.53;;;;;;;40.97;35.05;101116.28;5013225;28;20930;-87
2023/01/15 08:46:52;;;;;;;84.60;55.63;;;;;;;40.98;35.01;101120.59;5002554;28;20431;-87
2023/01/15 08:49:19;;;;;;;93.00;59.20;;;;;;;40.97;35.09;101102.66;5012726;28;20486;-89
2023/01/15 08:51:48;;;;;;;103.00;57.67;;;;;;;40.98;35.33;101106.19;5014136;28;20423;-90
2023/01/15 08:54:15;;;;;;;115.43;54.77;;;;;;;41.01;35.25;101111.00;5014630;28;20963;-90
2023/01/15 08:56:41;;;;;;;89.57;54.97;;;;;;;40.98;35.27;101103.47;5013696;28;20416;-79
2023/01/15 08:59:10;;;;;;;71.33;47.80;;;;;;;41.02;35.44;101116.13;5025157;28;20809;-82
2023/01/15 09:01:39;;;;;;;91.80;50.93;;;;;;;41.07;35.07;101107.00;5021599;28;20231;-90
2023/01/15 09:04:27;;;;;;;86.50;58.87;;;;;;;41.07;35.35;101107.00;5017015;28;20419;-90
2023/01/15 09:06:52;;;;;;;106.33;56.70;;;;;;;41.11;35.01;101104.41;5016932;28;20526;-92
2023/01/15 09:09:18;;;;;;;93.20;56.40;;;;;;;41.11;34.93;101104.41;5014923;28;20474;-91
2023/01/15 09:11:44;;;;;;;100.67;57.10;;;;;;;41.14;34.47;101103.78;5030832;28;20415;-92
2023/01/15 09:14:15;;;;;;;85.13;51.97;;;;;;;41.20;35.15;101110.66;5000123;28;20507;-91
2023/01/15 09:16:41;;;;;;;84.90;52.60;;;;;;;41.23;34.88;101105.34;5015409;28;20432;-91
2023/01/15 09:19:08;;;;;;;85.90;45.73;;;;;;;41.19;34.90;101115.31;5017548;28;20423;-91
2023/01/15 09:21:34;;;;;;;76.87;51.60;;;;;;;41.31;34.62;101103.72;5018069;28;20419;-90
2023/01/15 09:24:01;;;;;;;95.43;51.73;;;;;;;41.40;34.48;101109.19;5006498;28;20436;-91
2023/01/15 09:26:33;;;;;;;69.10;45.90;;;;;;;41.46;34.45;101113.34;5015715;28;20450;-88
2023/01/15 09:29:00;;;;;;;69.10;48.50;;;;;;;41.61;34.17;101116.31;5006173;28;20547;-83
2023/01/15 09:31:27;;;;;;;75.83;45.47;;;;;;;41.64;34.55;101120.31;5000409;28;20428;-89
2023/01/15 09:34:23;;;;;;;;;;;;;;;;;;;;;
2023/01/15 09:36:50;;;;;;;71.80;40.53;;;;;;;41.63;33.87;101117.94;5031649;28;20834;-82
2023/01/15 09:39:15;;;;;;;76.20;43.60;;;;;;;41.78;34.13;101123.66;5009766;28;20452;-82
2023/01/15 09:42:05;;;;;;;75.13;42.53;;;;;;;41.85;33.49;101117.69;5023618;28;20470;-82
2023/01/15 09:45:00;;;;;;;66.27;39.70;;;;;;;41.80;33.96;101110.50;5011206;28;20185;-86
2023/01/15 09:47:33;;;;;;;55.93;36.03;;;;;;;41.81;33.77;101120.28;4999922;28;20801;-88
2023/01/15 09:50:22;;;;;;;59.20;37.90;;;;;;;41.88;33.91;101124.44;5013090;28;20971;-87
2023/01/15 09:53:03;;;;;;;63.10;35.87;;;;;;;41.79;33.71;101122.53;5003043;28;20511;-87
2023/01/15 09:55:34;;;;;;;64.77;33.03;;;;;;;41.90;33.43;101108.53;5013457;28;20472;-86
2023/01/15 09:58:03;;;;;;;55.90;33.53;;;;;;;41.97;33.00;101114.28;5015282;28;20515;-88
2023/01/15 10:00:37;;;;;;;59.70;32.23;;;;;;;41.94;33.36;101112.22;5016426;28;20415;-87
2023/01/15 10:03:09;;;;;;;60.00;33.30;;;;;;;41.97;33.13;101103.38;5016096;28;20962;-86
2023/01/15 10:05:43;;;;;;;46.40;32.47;;;;;;;42.06;33.06;101102.22;5016632;28;20415;-87
2023/01/15 10:08:32;;;;;;;76.23;33.70;;;;;;;41.98;32.83;101105.75;5016006;28;21058;-87
2023/01/15 10:11:13;;;;;;;54.07;30.50;;;;;;;41.96;32.72;101110.75;5017275;28;20849;-88
2023/01/15 10:13:59;;;;;;;51.27;30.30;;;;;;;42.00;32.98;101105.47;5000857;28;20439;-88
2023/01/15 10:16:28;;;;;;;63.47;35.23;;;;;;;41.96;32.00;101104.50;5029208;28;20411;-88
2023/01/15 10:18:57;;;;;;;49.53;31.47;;;;;;;41.97;32.57;101103.38;5015694;28;20411;-84
2023/01/15 10:21:54;;;;;;;50.03;32.50;;;;;;;42.00;32.67;101102.72;5017095;28;20467;-79
2023/01/15 10:24:38;;;;;;;56.13;30.97;;;;;;;42.04;32.68;101111.81;5021270;28;20438;-83
2023/01/15 10:27:39;;;;;;;55.73;32.90;;;;;;;41.89;32.25;101098.78;5016572;28;20419;-85
2023/01/15 10:30:14;;;;;;;53.10;28.10;;;;;;;41.96;32.68;101093.59;4985442;28;21104;-88
2023/01/15 10:32:49;;;;;;;55.73;31.37;;;;;;;41.97;32.33;101090.53;5015418;28;20773;-89
2023/01/15 10:35:37;;;;;;;49.03;28.03;;;;;;;42.11;32.12;101093.84;5016515;28;20518;-88
2023/01/15 10:38:25;;;;;;;51.30;30.43;;;;;;;42.20;32.22;101096.53;5016419;28;20423;-89
2023/01/15 10:41:18;;;;;;;44.47;29.87;;;;;;;41.90;33.06;101087.53;5015700;28;20597;-84
2023/01/15 10:44:14;;;;;;;47.33;30.23;;;;;;;42.13;32.46;101091.59;5015577;28;20430;-80
2023/01/15 10:46:43;;;;;;;60.50;31.80;;;;;;;42.16;32.59;101081.97;5007873;28;20415;-87
2023/01/15 10:49:16;;;;;;;57.03;29.90;;;;;;;42.07;32.92;101089.38;5014124;28;20455;-87
2023/01/15 10:51:45;;;;;;;58.37;30.07;;;;;;;42.08;32.63;101080.88;5014138;28;20443;-79
2023/01/15 10:54:21;;;;;;;49.80;30.80;;;;;;;42.16;32.43;101079.25;4998112;28;20425;-83
2023/01/15 10:57:12;;;;;;;54.90;29.97;;;;;;;42.24;32.37;101075.66;5010870;28;20427;-89
2023/01/15 10:59:40;;;;;;;48.50;28.50;;;;;;;42.24;32.30;101074.88;5014652;28;20416;-84
2023/01/15 11:02:33;;;;;;;75.87;34.70;;;;;;;42.21;32.26;101070.06;5033813;28;20446;-88
2023/01/15 11:05:01;;;;;;;55.03;30.53;;;;;;;42.31;32.50;101069.69;5005451;28;20415;-86
2023/01/15 11:07:51;;;;;;;55.13;30.43;;;;;;;42.30;32.57;101068.09;5015487;28;20990;-87
2023/01/15 11:10:21;;;;;;;61.93;30.20;;;;;;;42.33;31.88;101070.94;5015753;28;20845;-86
2023/01/15 11:21:24;;;;;;;49.03;27.60;;;;;;;42.44;31.62;101059.66;5033807;28;20946;-78
2023/01/15 11:23:51;;;;;;;47.47;28.83;;;;;;;42.44;31.24;101051.47;5032801;28;20419;-82
2023/01/15 11:26:27;;;;;;;61.17;28.80;;;;;;;42.45;31.62;101051.13;5015487;28;20443;-79
2023/01/15 11:28:54;;;;;;;55.40;31.40;;;;;;;42.59;31.24;101045.41;5015350;28;20840;-79
2023/01/15 11:31:20;;;;;;;53.53;28.60;;;;;;;42.63;31.61;101043.63;5015464;28;20432;-86
2023/01/15 11:34:01;;;;;;;56.03;30.10;;;;;;;42.60;31.37;101036.09;5015286;28;20427;-88
2023/01/15 11:36:29;;;;;;;53.00;26.50;;;;;;;42.53;31.29;101019.44;5015495;28;20434;-89
2023/01/15 11:38:56;;;;;;;84.37;54.00;;;;;;;42.56;31.55;101032.44;5015495;28;20815;-89
2023/01/15 11:41:23;;;;;;;67.73;39.77;;;;;;;42.60;31.37;101019.72;5000446;28;20512;-89
2023/01/15 11:52:21;;;;;;;56.70;33.60;;;;;;;42.57;31.55;101012.19;5013006;28;20436;-79
2023/01/15 11:54:54;;;;;;;69.23;35.10;;;;;;;42.47;31.62;101007.16;4995041;28;20936;-80
2023/01/15 11:57:32;;;;;;;72.33;30.90;;;;;;;42.56;31.36;101005.94;4957601;28;20513;-80
2023/01/15 11:59:58;;;;;;;57.50;31.90;;;;;;;42.64;31.46;101002.38;4978170;28;20839;-86
2023/01/15 12:02:45;;;;;;;71.83;35.97;;;;;;;42.68;31.45;100990.78;4994787;28;20421;-87
2023/01/15 12:05:20;;;;;;;45.77;28.17;;;;;;;42.71;31.60;100992.84;4995312;28;20424;-84
2023/01/15 12:07:49;;;;;;;61.70;34.30;;;;;;;42.77;31.53;100995.00;4994870;28;20415;-89
2023/01/15 12:13:54;;;;;;;66.83;34.27;;;;;;;42.74;31.20;100986.72;5013134;28;20467;-84
2023/01/15 12:16:40;;;;;;;62.63;32.50;;;;;;;42.81;31.17;100985.03;4995505;28;20419;-84